Time;durP1;ratioP1;P1;durP2;ratioP2;P2;SDS_P1;SDS_P2;PMS_P1;PMS_P2;Temp;Humidity;BMP_temperature;BMP_pressure;BME280_temperature;BME280_humidity;BME280_pressure;Samples;Min_cycle;Max_cycle;Signal;HPM_P1;HPM_P2
2022/12/30 00:01:38;;;;;;;13.02;2.65;;;15.00;81.00;;;;;;4192044;28;20063;-62
2022/12/30 00:04:19;;;;;;;14.82;3.55;;;15.00;81.00;;;;;;4190503;28;20051;-62
2022/12/30 00:07:01;;;;;;;10.82;2.85;;;14.90;80.90;;;;;;4178441;28;20055;-62
2022/12/30 00:09:41;;;;;;;;;;;14.90;81.00;;;;;;4179633;28;20380;-61
2022/12/30 00:33:25;;;;;;;10.27;2.92;;;14.80;81.90;;;;;;4191231;28;20113;-62
2022/12/30 00:36:07;;;;;;;18.95;2.88;;;14.80;82.10;;;;;;4191680;28;20060;-62
2022/12/30 00:38:47;;;;;;;12.95;2.75;;;14.80;82.50;;;;;;4191438;28;20506;-62
2022/12/30 00:44:27;;;;;;;17.48;3.10;;;14.90;82.20;;;;;;4205644;28;20077;-62
2022/12/30 00:47:08;;;;;;;14.40;3.47;;;15.00;81.90;;;;;;4208283;28;20047;-62
2022/12/30 00:58:46;;;;;;;13.77;3.70;;;15.10;81.20;;;;;;4178769;28;20456;-62
2022/12/30 01:01:26;;;;;;;10.27;2.80;;;15.10;81.20;;;;;;4191272;28;20055;-62
2022/12/30 01:04:08;;;;;;;17.42;3.65;;;15.10;81.20;;;;;;4190982;28;20317;-62
2022/12/30 01:06:50;;;;;;;11.93;3.38;;;15.20;81.20;;;;;;4191114;28;20182;-62
2022/12/30 01:09:31;;;;;;;12.27;3.25;;;15.10;81.20;;;;;;4191332;28;20067;-62
2022/12/30 01:12:12;;;;;;;16.00;3.40;;;15.20;81.10;;;;;;4162243;28;20102;-62
2022/12/30 01:14:55;;;;;;;14.82;2.75;;;15.30;80.70;;;;;;4174966;28;20055;-62
2022/12/30 01:17:36;;;;;;;11.00;3.22;;;15.40;80.50;;;;;;4174743;28;20584;-62
2022/12/30 01:20:17;;;;;;;10.32;2.42;;;15.50;80.10;;;;;;4162362;28;20063;-62
2022/12/30 01:22:59;;;;;;;15.13;2.97;;;15.50;79.80;;;;;;4174517;28;20083;-62
2022/12/30 01:25:40;;;;;;;13.43;3.25;;;15.60;79.50;;;;;;4187864;28;20063;-62
2022/12/30 01:28:21;;;;;;;19.50;3.92;;;15.60;79.30;;;;;;4191895;28;20039;-62
2022/12/30 01:31:06;;;;;;;15.77;3.08;;;15.60;79.10;;;;;;4191533;28;20063;-62
2022/12/30 01:33:47;;;;;;;15.50;3.35;;;15.60;79.10;;;;;;4191492;28;20056;-63
2022/12/30 01:36:28;;;;;;;11.27;3.15;;;15.60;79.10;;;;;;4191324;28;20121;-62
2022/12/30 01:39:10;;;;;;;12.15;3.13;;;15.60;80.10;;;;;;4193275;28;20059;-62
2022/12/30 01:41:53;;;;;;;12.00;2.63;;;15.60;79.10;;;;;;4196022;28;20051;-61
2022/12/30 01:44:56;;;;;;;15.13;2.83;;;15.70;78.90;;;;;;4177529;28;20191;-62
2022/12/30 01:47:44;;;;;;;13.52;3.00;;;15.70;78.60;;;;;;4183895;28;20055;-61
2022/12/30 01:50:31;;;;;;;16.65;4.07;;;15.70;78.60;;;;;;4200358;28;20121;-62
2022/12/30 01:53:16;;;;;;;14.32;3.58;;;15.70;78.70;;;;;;4193784;28;20162;-62
2022/12/30 01:56:04;;;;;;;11.77;3.20;;;15.70;78.80;;;;;;4193651;28;20391;-62
2022/12/30 01:58:51;;;;;;;13.52;3.85;;;15.70;78.60;;;;;;4177233;28;20052;-62
2022/12/30 02:01:34;;;;;;;18.15;5.00;;;15.70;78.50;;;;;;4164805;28;20075;-62
2022/12/30 02:04:19;;;;;;;7.78;2.17;;;15.70;78.70;;;;;;4194121;28;20540;-62
2022/12/30 02:07:05;;;;;;;10.05;2.95;;;15.80;78.60;;;;;;4209290;28;20059;-62
2022/12/30 02:09:47;;;;;;;13.70;3.38;;;15.80;79.20;;;;;;4210055;28;20047;-62
2022/12/30 02:12:29;;;;;;;13.75;2.67;;;15.80;78.30;;;;;;4205225;28;20048;-62
2022/12/30 02:15:11;;;;;;;9.88;3.50;;;15.80;78.10;;;;;;4193068;28;20267;-61
2022/12/30 02:18:04;;;;;;;15.50;3.17;;;15.80;78.20;;;;;;4189741;28;20059;-62
2022/12/30 02:21:04;;;;;;;13.07;2.85;;;15.80;78.10;;;;;;4200684;28;20051;-61
2022/12/30 02:24:18;;;;;;;11.50;3.15;;;15.70;78.30;;;;;;4208955;28;20137;-62
2022/12/30 02:27:20;;;;;;;12.07;2.42;;;15.80;78.20;;;;;;4205884;28;20047;-63
2022/12/30 02:30:07;;;;;;;12.50;3.05;;;15.80;77.90;;;;;;4176585;28;20178;-62
2022/12/30 02:33:03;;;;;;;11.02;2.97;;;15.90;77.80;;;;;;4176770;28;20056;-62
2022/12/30 02:35:56;;;;;;;13.02;2.58;;;15.90;77.50;;;;;;4204719;28;20161;-62
2022/12/30 02:38:44;;;;;;;13.07;2.83;;;15.90;77.60;;;;;;4210179;28;20105;-63
2022/12/30 02:44:38;;;;;;;11.80;2.70;;;15.90;77.80;;;;;;4202392;28;20523;-62
2022/12/30 02:47:24;;;;;;;15.85;3.33;;;15.90;77.70;;;;;;4180634;28;20105;-62
2022/12/30 02:53:13;;;;;;;9.15;2.55;;;15.80;77.60;;;;;;4176250;28;20059;-62
2022/12/30 02:55:54;;;;;;;11.77;2.67;;;15.90;77.70;;;;;;4176508;28;20392;-62
2022/12/30 02:58:37;;;;;;;12.68;2.40;;;15.90;77.50;;;;;;4176346;28;20052;-62
2022/12/30 03:04:35;;;;;;;10.52;2.50;;;16.00;77.20;;;;;;4193768;28;20055;-63
2022/12/30 03:07:28;;;;;;;14.65;2.67;;;15.90;77.10;;;;;;4176158;28;20186;-62
2022/12/30 03:13:26;;;;;;;11.05;2.95;;;15.90;77.20;;;;;;4184355;28;20047;-61
2022/12/30 03:16:13;;;;;;;14.75;2.80;;;15.90;77.30;;;;;;4200354;28;20498;-62
2022/12/30 03:18:56;;;;;;;16.20;3.50;;;15.90;77.90;;;;;;4192426;28;20043;-61
2022/12/30 03:21:40;;;;;;;16.10;3.35;;;15.90;77.00;;;;;;4192138;28;20506;-62
2022/12/30 03:27:24;;;;;;;13.18;3.17;;;15.90;78.20;;;;;;4191734;28;20059;-62
2022/12/30 03:30:06;;;;;;;15.27;3.33;;;15.90;77.40;;;;;;4192072;28;20067;-62
2022/12/30 03:32:47;;;;;;;9.88;3.20;;;15.90;77.20;;;;;;4191797;28;20055;-62
2022/12/30 03:35:30;;;;;;;11.38;2.85;;;15.90;77.30;;;;;;4204494;28;20067;-62
2022/12/30 03:38:13;;;;;;;8.65;2.50;;;15.90;77.40;;;;;;4175733;28;20635;-62
2022/12/30 03:40:58;;;;;;;13.80;2.65;;;15.90;77.30;;;;;;4175739;28;20047;-62
2022/12/30 03:43:40;;;;;;;12.13;2.65;;;15.90;77.20;;;;;;4175650;28;20479;-62
2022/12/30 03:46:26;;;;;;;10.73;2.70;;;15.90;77.30;;;;;;4175463;28;20071;-62
2022/12/30 03:49:07;;;;;;;9.85;2.83;;;15.90;77.20;;;;;;4175624;28;20052;-62
2022/12/30 03:51:48;;;;;;;9.57;2.42;;;15.90;77.20;;;;;;4188727;28;20052;-62
2022/12/30 03:54:29;;;;;;;9.98;2.95;;;15.90;77.20;;;;;;4191850;28;20052;-62
2022/12/30 03:57:11;;;;;;;11.90;3.13;;;15.90;77.50;;;;;;4191493;28;20051;-62
2022/12/30 03:59:52;;;;;;;14.98;3.42;;;15.90;77.50;;;;;;4200721;28;20051;-62
2022/12/30 04:02:34;;;;;;;;;;;15.90;77.40;;;;;;4196557;28;20063;-62
2022/12/30 04:05:15;;;;;;;14.85;2.60;;;15.90;77.50;;;;;;4190831;28;19931;-62
2022/12/30 04:07:55;;;;;;;11.20;2.63;;;15.90;77.50;;;;;;4185181;28;20558;-62
2022/12/30 04:10:36;;;;;;;9.57;2.72;;;15.90;77.30;;;;;;4187710;28;20499;-63
2022/12/30 04:13:19;;;;;;;8.93;3.37;;;15.90;77.20;;;;;;4190552;28;20573;-62
2022/12/30 04:16:04;;;;;;;13.18;2.95;;;15.90;77.10;;;;;;4191464;28;20052;-62
2022/12/30 04:18:46;;;;;;;12.05;2.90;;;15.90;77.10;;;;;;4190201;28;20133;-62
2022/12/30 04:21:28;;;;;;;10.50;2.50;;;15.90;77.30;;;;;;4187158;28;20055;-63
2022/12/30 04:24:10;;;;;;;11.15;2.80;;;15.90;77.20;;;;;;4176545;28;20067;-62
2022/12/30 04:26:51;;;;;;;12.65;2.47;;;15.90;77.10;;;;;;4173123;28;20134;-62
2022/12/30 04:29:33;;;;;;;13.93;2.28;;;15.90;77.00;;;;;;4191137;28;20055;-62
2022/12/30 04:32:15;;;;;;;8.95;1.90;;;15.90;77.10;;;;;;4187390;28;20055;-62
2022/12/30 04:34:56;;;;;;;12.10;2.75;;;15.90;77.10;;;;;;4191430;28;20055;-62
2022/12/30 04:37:37;;;;;;;10.23;2.42;;;15.90;76.80;;;;;;4178015;28;20055;-62
2022/12/30 04:40:18;;;;;;;9.55;2.75;;;16.00;76.70;;;;;;4189530;28;20183;-62
2022/12/30 04:42:59;;;;;;;9.02;2.55;;;16.00;76.70;;;;;;4208214;28;20058;-61
2022/12/30 04:45:41;;;;;;;11.48;2.63;;;16.00;76.50;;;;;;4207536;28;20051;-62
2022/12/30 04:48:22;;;;;;;8.13;2.10;;;16.10;76.10;;;;;;4190144;28;20075;-62
2022/12/30 04:51:03;;;;;;;7.95;2.78;;;16.20;75.90;;;;;;4183338;28;20051;-62
2022/12/30 04:53:44;;;;;;;8.37;2.57;;;16.20;75.60;;;;;;4188953;28;20052;-62
2022/12/30 04:56:25;;;;;;;12.82;2.65;;;16.20;75.40;;;;;;4190988;28;20101;-62
2022/12/30 04:59:07;;;;;;;8.75;2.20;;;16.10;75.40;;;;;;4191029;28;20055;-61
2022/12/30 05:01:50;;;;;;;11.15;2.60;;;16.10;75.80;;;;;;4202760;28;20050;-61
2022/12/30 05:04:31;;;;;;;12.90;2.53;;;16.10;75.70;;;;;;4182068;28;20059;-62
2022/12/30 05:07:12;;;;;;;7.70;2.03;;;16.10;75.70;;;;;;4205174;28;20490;-61
2022/12/30 05:09:52;;;;;;;11.73;2.90;;;16.10;75.80;;;;;;4207350;28;20125;-62
2022/12/30 05:12:34;;;;;;;10.38;2.90;;;16.20;75.60;;;;;;4203397;28;20075;-62
2022/12/30 05:15:15;;;;;;;10.70;2.38;;;16.20;75.60;;;;;;4208549;28;20379;-61
2022/12/30 05:17:57;;;;;;;7.35;2.75;;;16.20;75.50;;;;;;4195286;28;20398;-62
2022/12/30 05:20:41;;;;;;;10.48;3.38;;;16.20;75.60;;;;;;4164508;28;20141;-61
2022/12/30 05:26:26;;;;;;;10.25;3.40;;;16.20;75.30;;;;;;4188074;28;20052;-62
2022/12/30 05:29:07;;;;;;;9.55;3.13;;;16.10;75.50;;;;;;4177282;28;20056;-62
2022/12/30 05:31:47;;;;;;;10.70;2.88;;;16.10;75.60;;;;;;4165119;28;20203;-62
2022/12/30 05:34:30;;;;;;;7.95;2.95;;;16.00;75.80;;;;;;4209461;28;20055;-62
2022/12/30 05:37:11;;;;;;;10.20;3.05;;;16.00;76.10;;;;;;4177539;28;20052;-62
2022/12/30 05:39:52;;;;;;;10.65;3.10;;;16.00;76.20;;;;;;4177550;28;20056;-62
2022/12/30 05:42:33;;;;;;;6.63;2.60;;;16.00;76.00;;;;;;4177612;28;20070;-62
2022/12/30 05:45:14;;;;;;;9.57;2.90;;;16.10;76.00;;;;;;4177284;28;20056;-62
2022/12/30 05:47:55;;;;;;;10.02;2.75;;;16.10;75.70;;;;;;4183575;28;20141;-62
2022/12/30 05:50:37;;;;;;;9.10;2.75;;;16.10;76.20;;;;;;4193174;28;20050;-62
2022/12/30 05:53:19;;;;;;;6.78;3.03;;;16.20;75.20;;;;;;4193879;28;20218;-62
2022/12/30 05:55:59;;;;;;;11.45;2.88;;;16.20;75.20;;;;;;4193562;28;20391;-61
2022/12/30 05:58:40;;;;;;;8.65;3.13;;;16.20;74.90;;;;;;4180069;28;20060;-62
2022/12/30 06:01:21;;;;;;;10.25;3.25;;;16.20;74.70;;;;;;4210443;28;20055;-62
2022/12/30 06:04:02;;;;;;;4.72;2.65;;;16.20;74.70;;;;;;4210413;28;20054;-61
2022/12/30 06:06:45;;;;;;;11.63;2.72;;;16.20;74.90;;;;;;4205212;28;20177;-62
2022/12/30 06:09:26;;;;;;;8.73;2.80;;;16.20;75.00;;;;;;4193629;28;20051;-62
2022/12/30 06:12:07;;;;;;;10.10;2.95;;;16.20;75.20;;;;;;4208439;28;20829;-61
2022/12/30 06:14:48;;;;;;;7.70;2.53;;;16.20;75.20;;;;;;4210363;28;20071;-62
2022/12/30 06:17:29;;;;;;;8.23;2.90;;;16.20;75.90;;;;;;4209865;28;20059;-62
2022/12/30 06:20:11;;;;;;;8.32;2.85;;;16.20;74.80;;;;;;4197227;28;20051;-62
2022/12/30 06:22:53;;;;;;;7.50;2.60;;;16.30;74.80;;;;;;4192613;28;20051;-62
2022/12/30 06:25:33;;;;;;;10.27;2.67;;;16.30;74.60;;;;;;4176629;28;20056;-62
2022/12/30 06:28:14;;;;;;;7.50;2.38;;;16.20;74.60;;;;;;4189433;28;20178;-62
2022/12/30 06:30:55;;;;;;;6.65;2.47;;;16.20;74.60;;;;;;4192696;28;20388;-62
2022/12/30 06:33:37;;;;;;;7.75;2.00;;;16.10;74.70;;;;;;4171385;28;20056;-62
2022/12/30 06:36:24;;;;;;;7.15;2.45;;;16.10;75.00;;;;;;4182258;28;20059;-62
2022/12/30 06:39:06;;;;;;;7.80;2.58;;;16.00;75.20;;;;;;4192808;28;20051;-62
2022/12/30 06:41:52;;;;;;;5.53;2.15;;;15.90;75.70;;;;;;4184735;28;20075;-62
2022/12/30 06:44:33;;;;;;;6.90;2.30;;;15.90;76.00;;;;;;4198386;28;20403;-62
2022/12/30 06:47:15;;;;;;;10.27;2.67;;;16.00;76.00;;;;;;4177111;28;20059;-62
2022/12/30 06:49:59;;;;;;;7.93;2.30;;;16.00;75.50;;;;;;4184137;28;20109;-61
2022/12/30 06:52:42;;;;;;;;;;;16.10;75.20;;;;;;4192306;28;20186;-62
2022/12/30 06:55:28;;;;;;;6.97;2.33;;;16.10;75.10;;;;;;4179818;28;19969;-61
2022/12/30 06:58:14;;;;;;;9.00;2.17;;;16.10;75.10;;;;;;4182092;28;20075;-62
2022/12/30 07:00:55;;;;;;;6.10;2.42;;;16.20;75.30;;;;;;4173733;28;20080;-61
2022/12/30 07:03:36;;;;;;;8.48;2.20;;;16.20;74.80;;;;;;4184223;28;20589;-62
2022/12/30 07:06:17;;;;;;;6.18;1.90;;;16.30;74.40;;;;;;4190702;28;20184;-62
2022/12/30 07:08:58;;;;;;;6.45;2.42;;;16.30;74.20;;;;;;4199765;28;20521;-61
2022/12/30 07:11:44;;;;;;;9.18;2.67;;;16.20;74.00;;;;;;4186947;28;20090;-61
2022/12/30 07:14:29;;;;;;;8.88;2.60;;;16.10;73.90;;;;;;4189088;28;20055;-61
2022/12/30 07:17:11;;;;;;;9.15;2.45;;;16.00;74.00;;;;;;4181408;28;20052;-61
2022/12/30 07:19:55;;;;;;;7.70;3.05;;;16.00;74.40;;;;;;4174360;28;20097;-61
2022/12/30 07:22:35;;;;;;;6.40;2.20;;;15.90;74.80;;;;;;4173472;28;20083;-62
2022/12/30 07:25:16;;;;;;;12.63;3.30;;;16.00;75.20;;;;;;4173519;28;20182;-61
2022/12/30 07:28:00;;;;;;;6.25;2.28;;;16.00;75.00;;;;;;4177518;28;20121;-61
2022/12/30 07:30:41;;;;;;;10.48;2.50;;;16.00;74.40;;;;;;4202628;28;20059;-61
2022/12/30 07:33:22;;;;;;;;;;;16.10;74.20;;;;;;4187128;28;20503;-60
2022/12/30 07:36:06;;;;;;;9.27;2.63;;;16.10;74.10;;;;;;4170185;28;20008;-61
2022/12/30 07:38:50;;;;;;;5.38;1.73;;;16.10;73.90;;;;;;4172579;28;20052;-63
2022/12/30 07:41:44;;;;;;;7.50;2.35;;;16.20;73.60;;;;;;4169595;28;20080;-62
2022/12/30 07:44:27;;;;;;;8.77;2.50;;;16.20;73.40;;;;;;4188845;28;20054;-61
2022/12/30 07:47:07;;;;;;;7.03;2.55;;;16.20;73.10;;;;;;4174509;28;20060;-61
2022/12/30 07:49:49;;;;;;;8.68;2.70;;;16.10;73.00;;;;;;4186166;28;20054;-61
2022/12/30 07:52:31;;;;;;;8.73;2.88;;;16.10;73.10;;;;;;4188800;28;20086;-61
2022/12/30 07:55:12;;;;;;;6.30;2.08;;;16.10;73.20;;;;;;4188739;28;20062;-61
2022/12/30 07:57:58;;;;;;;7.82;2.75;;;16.10;73.00;;;;;;4187668;28;20051;-61
2022/12/30 08:00:45;;;;;;;8.45;2.30;;;16.20;72.80;;;;;;4171024;28;20066;-61
2022/12/30 08:03:27;;;;;;;8.02;2.30;;;16.20;72.30;;;;;;4135428;28;20191;-62
2022/12/30 08:06:11;;;;;;;8.88;2.83;;;16.20;72.40;;;;;;4182357;28;20182;-62
2022/12/30 08:08:52;;;;;;;5.32;2.03;;;16.10;72.40;;;;;;4173571;28;20051;-62
2022/12/30 08:11:33;;;;;;;5.88;2.10;;;16.10;72.40;;;;;;4170459;28;20055;-61
2022/12/30 08:14:14;;;;;;;9.10;2.00;;;16.20;72.50;;;;;;4181749;28;20056;-62
2022/12/30 08:17:06;;;;;;;6.03;2.08;;;16.20;72.30;;;;;;4142703;28;20520;-62
2022/12/30 08:19:47;;;;;;;9.55;2.65;;;16.20;71.90;;;;;;4132813;28;20084;-60
2022/12/30 08:22:32;;;;;;;7.35;2.70;;;16.20;72.00;;;;;;4140455;28;20048;-62
2022/12/30 08:25:15;;;;;;;9.18;2.05;;;16.10;72.10;;;;;;4137954;28;20060;-61
2022/12/30 08:28:00;;;;;;;4.65;2.50;;;16.10;72.20;;;;;;4155589;28;20060;-61
2022/12/30 08:30:41;;;;;;;8.47;2.07;;;16.10;72.10;;;;;;4146281;28;20089;-61
2022/12/30 08:33:25;;;;;;;8.93;2.50;;;16.10;72.00;;;;;;4153347;28;20375;-62
2022/12/30 08:36:11;;;;;;;12.48;2.42;;;16.10;72.10;;;;;;4148141;28;20122;-61
2022/12/30 08:38:54;;;;;;;8.68;2.65;;;16.00;72.10;;;;;;4140152;28;20065;-61
2022/12/30 08:41:37;;;;;;;8.93;2.70;;;16.00;72.10;;;;;;4160368;28;20056;-60
2022/12/30 08:44:18;;;;;;;5.18;2.08;;;16.00;72.20;;;;;;4140310;28;20057;-62
2022/12/30 08:46:59;;;;;;;10.10;2.97;;;16.00;72.60;;;;;;4148748;28;20416;-61
2022/12/30 08:49:42;;;;;;;8.40;2.30;;;16.00;72.50;;;;;;4152547;28;20064;-61
2022/12/30 08:52:24;;;;;;;8.98;2.92;;;16.00;72.30;;;;;;4148926;28;20065;-62
2022/12/30 08:55:05;;;;;;;8.63;2.20;;;16.10;72.10;;;;;;4157422;28;20130;-61
2022/12/30 08:57:46;;;;;;;10.27;2.72;;;16.00;71.80;;;;;;4154374;28;21006;-61
2022/12/30 09:00:27;;;;;;;10.93;2.75;;;16.00;71.80;;;;;;4147968;28;20068;-61
2022/12/30 09:03:09;;;;;;;9.02;2.35;;;16.00;71.90;;;;;;4148075;28;20075;-61
2022/12/30 09:05:53;;;;;;;6.45;2.42;;;16.00;72.00;;;;;;4146614;28;20191;-61
2022/12/30 09:08:38;;;;;;;6.63;2.75;;;16.00;71.80;;;;;;4148631;28;20048;-61
2022/12/30 09:11:21;;;;;;;7.40;2.03;;;16.00;71.70;;;;;;4153766;28;20068;-61
2022/12/30 09:14:05;;;;;;;8.48;2.15;;;15.90;71.70;;;;;;4149758;28;20053;-61
2022/12/30 09:16:46;;;;;;;3.95;1.88;;;15.90;71.80;;;;;;4170775;28;20098;-61
2022/12/30 09:19:27;;;;;;;5.82;2.35;;;15.80;72.00;;;;;;4181346;28;20063;-61
2022/12/30 09:22:09;;;;;;;9.35;2.88;;;15.80;72.20;;;;;;4183426;28;20056;-61
2022/12/30 09:24:50;;;;;;;12.68;2.85;;;15.70;72.30;;;;;;4168137;28;20055;-61
2022/12/30 09:27:31;;;;;;;4.82;1.75;;;15.70;72.60;;;;;;4169694;28;20051;-61
2022/12/30 09:30:18;;;;;;;9.20;2.75;;;15.60;72.80;;;;;;4180818;28;20062;-61
2022/12/30 09:32:59;;;;;;;5.57;2.15;;;15.50;73.00;;;;;;4179889;28;20150;-61
2022/12/30 09:35:42;;;;;;;7.82;2.25;;;15.50;73.20;;;;;;4182163;28;20060;-61
2022/12/30 09:38:26;;;;;;;11.48;2.67;;;15.40;73.30;;;;;;4176664;28;20206;-61
2022/12/30 09:41:09;;;;;;;9.43;2.17;;;15.40;73.40;;;;;;4183602;28;20059;-61
2022/12/30 09:44:00;;;;;;;8.65;2.35;;;15.30;73.60;;;;;;4181363;28;20133;-61
2022/12/30 09:46:45;;;;;;;8.23;2.03;;;15.40;73.70;;;;;;4182321;28;20064;-61
2022/12/30 09:49:31;;;;;;;7.85;2.40;;;15.40;74.30;;;;;;4189923;28;20407;-61
2022/12/30 09:52:24;;;;;;;8.98;2.13;;;15.50;73.20;;;;;;4179492;28;20190;-61
2022/12/30 09:55:14;;;;;;;8.23;2.13;;;15.50;72.90;;;;;;4179129;28;20613;-61
2022/12/30 09:57:59;;;;;;;7.43;2.40;;;15.50;72.80;;;;;;4185411;28;20093;-61
2022/12/30 10:00:40;;;;;;;12.73;2.40;;;15.50;72.70;;;;;;4174994;28;20068;-60
2022/12/30 10:03:25;;;;;;;6.13;2.08;;;15.50;72.80;;;;;;4176264;28;20052;-60
2022/12/30 10:06:30;;;;;;;6.38;2.10;;;15.50;72.70;;;;;;4178724;28;20051;-60
2022/12/30 10:09:33;;;;;;;8.73;2.10;;;15.50;72.90;;;;;;4172160;28;20048;-60
2022/12/30 10:12:27;;;;;;;7.78;2.70;;;15.40;72.90;;;;;;4177973;28;20072;-60
2022/12/30 10:15:24;;;;;;;6.97;1.88;;;15.40;73.10;;;;;;4178560;28;20068;-60
2022/12/30 10:18:26;;;;;;;6.68;2.17;;;15.40;73.00;;;;;;4167023;28;20119;-60
2022/12/30 10:21:14;;;;;;;;;;;15.40;72.90;;;;;;4178033;28;20106;-60
2022/12/30 10:24:13;;;;;;;4.63;1.60;;;15.40;73.00;;;;;;4181738;28;20437;-59
2022/12/30 10:26:57;;;;;;;7.72;1.55;;;15.40;72.80;;;;;;4186062;28;20047;-59
2022/12/30 10:29:40;;;;;;;5.80;1.65;;;15.50;73.00;;;;;;4183765;28;20060;-60
2022/12/30 10:32:23;;;;;;;6.32;1.65;;;15.50;72.60;;;;;;4178206;28;20134;-61
2022/12/30 10:35:14;;;;;;;10.93;1.98;;;15.60;72.30;;;;;;4183500;28;20398;-60
2022/12/30 10:37:58;;;;;;;6.00;1.65;;;15.60;72.00;;;;;;4176728;28;20075;-60
2022/12/30 10:40:50;;;;;;;6.65;2.05;;;15.60;72.00;;;;;;4169459;28;20133;-60
2022/12/30 10:43:48;;;;;;;7.15;1.73;;;15.60;72.00;;;;;;4171885;28;20085;-60
2022/12/30 10:46:49;;;;;;;3.42;1.50;;;15.60;72.10;;;;;;4167909;28;20083;-60
2022/12/30 10:49:56;;;;;;;6.70;2.13;;;15.50;72.20;;;;;;4178130;28;20086;-60
2022/12/30 10:52:42;;;;;;;7.28;1.90;;;15.50;72.20;;;;;;4130144;28;20175;-60
2022/12/30 10:55:25;;;;;;;8.15;1.88;;;15.50;72.20;;;;;;4167250;28;20055;-60
2022/12/30 10:58:16;;;;;;;5.25;1.33;;;15.50;72.50;;;;;;4162372;28;20095;-60
2022/12/30 11:01:01;;;;;;;10.63;1.52;;;15.60;72.60;;;;;;4173006;28;20055;-61
2022/12/30 11:03:47;;;;;;;9.40;2.25;;;15.60;72.40;;;;;;4170899;28;20054;-61
2022/12/30 11:06:33;;;;;;;9.15;2.40;;;15.60;72.00;;;;;;4181606;28;20103;-61
2022/12/30 11:09:23;;;;;;;5.15;1.65;;;15.60;72.00;;;;;;4177181;28;20060;-61
2022/12/30 11:15:51;;;;;;;4.97;2.28;;;15.50;72.10;;;;;;4171523;28;20463;-62
2022/12/30 11:18:36;;;;;;;6.32;2.00;;;15.50;72.00;;;;;;4170383;28;20094;-61
2022/12/30 11:21:28;;;;;;;5.18;1.60;;;15.60;71.90;;;;;;4191316;28;20614;-60
2022/12/30 11:24:17;;;;;;;6.20;1.70;;;15.60;71.60;;;;;;4182509;28;20048;-60
2022/12/30 11:27:02;;;;;;;5.93;1.60;;;15.60;71.60;;;;;;4179097;28;20071;-62
2022/12/30 11:29:47;;;;;;;7.40;1.65;;;15.60;71.90;;;;;;4149494;28;20490;-62
2022/12/30 11:32:28;;;;;;;;;;;15.50;71.90;;;;;;4175199;28;20051;-61
2022/12/30 11:35:32;;;;;;;2.50;1.20;;;15.50;72.20;;;;;;4157469;28;19940;-62
2022/12/30 11:38:35;;;;;;;5.13;2.08;;;15.50;72.20;;;;;;4171789;28;20091;-62
2022/12/30 11:41:26;;;;;;;6.07;1.63;;;15.40;72.20;;;;;;4180878;28;21671;-61
2022/12/30 11:44:13;;;;;;;5.70;1.88;;;15.40;72.50;;;;;;4175310;28;20459;-61
2022/12/30 11:47:01;;;;;;;3.90;1.88;;;15.30;72.90;;;;;;4144534;28;20075;-61
2022/12/30 11:49:51;;;;;;;5.53;2.20;;;15.20;73.20;;;;;;4179863;28;20144;-62
2022/12/30 11:52:35;;;;;;;6.05;1.80;;;15.20;73.20;;;;;;4178326;28;20086;-62
2022/12/30 11:55:26;;;;;;;6.90;1.90;;;15.10;73.80;;;;;;4160638;28;20064;-62
2022/12/30 11:58:13;;;;;;;5.35;1.52;;;15.10;73.70;;;;;;4177133;28;20129;-61
2022/12/30 12:01:03;;;;;;;4.80;1.70;;;15.00;73.90;;;;;;4171420;28;20499;-61
2022/12/30 12:03:50;;;;;;;5.80;1.75;;;15.00;73.60;;;;;;4174190;28;20063;-60
2022/12/30 12:06:48;;;;;;;4.85;1.98;;;15.00;73.90;;;;;;4181328;28;20070;-62
2022/12/30 12:09:37;;;;;;;3.75;1.55;;;14.90;74.60;;;;;;4172689;28;20051;-63
2022/12/30 12:12:24;;;;;;;4.63;1.85;;;14.90;74.60;;;;;;4185522;28;20126;-62
2022/12/30 12:15:20;;;;;;;4.95;2.10;;;14.90;74.90;;;;;;4179080;28;20537;-62
2022/12/30 12:18:10;;;;;;;4.57;1.60;;;14.80;74.70;;;;;;4176569;28;20161;-62
2022/12/30 12:21:05;;;;;;;4.93;1.60;;;14.80;74.90;;;;;;4173995;28;20051;-62
2022/12/30 12:23:52;;;;;;;5.13;2.00;;;14.80;74.90;;;;;;4179068;28;20064;-62
2022/12/30 12:26:42;;;;;;;3.88;1.40;;;14.70;75.00;;;;;;4183732;28;20132;-60
2022/12/30 12:29:25;;;;;;;3.35;1.27;;;14.70;74.90;;;;;;4172275;28;20526;-60
2022/12/30 12:32:37;;;;;;;4.43;1.67;;;14.70;75.10;;;;;;4174091;28;20059;-61
2022/12/30 12:35:34;;;;;;;1.85;1.17;;;14.70;74.70;;;;;;4175701;28;20056;-61
2022/12/30 12:38:37;;;;;;;2.80;1.35;;;14.60;75.20;;;;;;4172404;28;20047;-62
2022/12/30 12:41:41;;;;;;;4.82;1.50;;;14.60;75.50;;;;;;4173747;28;20195;-62
2022/12/30 12:44:48;;;;;;;3.20;1.15;;;14.60;75.90;;;;;;4171877;28;20471;-60
2022/12/30 12:47:42;;;;;;;3.60;1.23;;;14.70;75.90;;;;;;4177033;28;20063;-60
2022/12/30 12:50:42;;;;;;;4.22;1.30;;;14.80;75.50;;;;;;4172148;28;20059;-59
2022/12/30 12:54:00;;;;;;;2.78;1.40;;;14.90;74.80;;;;;;4169615;28;20095;-61
2022/12/30 12:57:10;;;;;;;3.03;1.40;;;14.90;74.60;;;;;;4159108;28;20560;-59
2022/12/30 13:00:08;;;;;;;2.35;1.00;;;14.90;74.80;;;;;;4179416;28;20051;-60
2022/12/30 13:03:15;;;;;;;3.75;1.52;;;15.00;74.30;;;;;;4159403;28;20047;-60
2022/12/30 13:06:04;;;;;;;2.65;1.58;;;15.10;73.80;;;;;;4180410;28;20612;-60
2022/12/30 13:09:03;;;;;;;4.82;1.40;;;15.10;73.70;;;;;;4173836;28;20450;-59
2022/12/30 13:11:54;;;;;;;5.53;1.23;;;15.20;73.40;;;;;;4166411;28;20067;-60
2022/12/30 13:14:45;;;;;;;6.35;1.67;;;15.20;73.40;;;;;;4178999;28;20151;-64
2022/12/30 13:17:34;;;;;;;4.65;1.10;;;15.20;73.70;;;;;;4184279;28;20052;-62
2022/12/30 13:20:32;;;;;;;7.70;1.60;;;15.20;73.70;;;;;;4182962;28;20122;-62
2022/12/30 13:23:17;;;;;;;5.53;1.42;;;15.20;74.00;;;;;;4166328;28;20059;-61
2022/12/30 13:26:00;;;;;;;6.78;2.15;;;15.20;74.10;;;;;;4144973;28;20630;-60
2022/12/30 13:28:48;;;;;;;7.50;1.23;;;15.30;74.00;;;;;;4155139;28;20055;-61
2022/12/30 13:31:41;;;;;;;9.60;2.47;;;15.40;74.00;;;;;;4165779;28;20048;-62
2022/12/30 13:34:32;;;;;;;3.43;1.33;;;15.50;73.60;;;;;;4174341;28;20209;-62
2022/12/30 13:37:20;;;;;;;3.92;1.42;;;15.60;73.20;;;;;;4176506;28;20048;-61
2022/12/30 13:40:06;;;;;;;7.30;1.95;;;15.60;73.20;;;;;;4175729;28;20476;-61
2022/12/30 13:43:06;;;;;;;2.92;1.58;;;15.60;73.10;;;;;;4170622;28;20071;-61
2022/12/30 13:45:47;;;;;;;6.70;2.60;;;15.60;72.80;;;;;;4174278;28;20438;-62
2022/12/30 13:48:34;;;;;;;5.25;1.35;;;15.60;74.00;;;;;;4179310;28;20052;-61
2022/12/30 13:51:22;;;;;;;4.45;1.40;;;15.50;73.10;;;;;;4195307;28;20184;-62
2022/12/30 13:54:09;;;;;;;6.70;1.45;;;15.50;73.40;;;;;;4183589;28;20059;-63
2022/12/30 13:56:51;;;;;;;6.80;1.63;;;15.50;74.10;;;;;;4183376;28;20052;-63
2022/12/30 13:59:35;;;;;;;3.58;1.10;;;15.60;74.10;;;;;;4182146;28;20191;-63
2022/12/30 14:02:47;;;;;;;4.85;1.45;;;15.60;73.70;;;;;;4184307;28;20063;-63
2022/12/30 14:05:59;;;;;;;4.47;1.48;;;15.70;73.10;;;;;;4180035;28;20133;-64
2022/12/30 14:08:52;;;;;;;4.05;1.50;;;15.70;73.10;;;;;;4183051;28;20055;-64
2022/12/30 14:11:33;;;;;;;5.80;1.25;;;15.70;72.90;;;;;;4180225;28;20056;-64
2022/12/30 14:14:20;;;;;;;9.47;1.43;;;15.60;73.00;;;;;;4178189;28;20055;-63
2022/12/30 14:17:03;;;;;;;2.83;1.02;;;15.60;73.30;;;;;;4178247;28;20313;-63
2022/12/30 14:19:52;;;;;;;6.43;1.58;;;15.60;73.20;;;;;;4186315;28;20055;-63
2022/12/30 14:22:57;;;;;;;7.40;1.55;;;15.60;73.90;;;;;;4182230;28;20407;-63
2022/12/30 14:25:40;;;;;;;6.13;1.10;;;15.60;72.90;;;;;;4186976;28;20072;-63
2022/12/30 14:28:23;;;;;;;2.13;1.00;;;15.60;73.10;;;;;;4187687;28;20618;-63
2022/12/30 14:31:23;;;;;;;5.45;1.83;;;15.60;73.10;;;;;;4176731;28;20166;-64
2022/12/30 14:34:07;;;;;;;4.07;1.00;;;15.50;72.90;;;;;;4176168;28;20186;-63
2022/12/30 14:36:58;;;;;;;3.97;1.63;;;15.50;73.30;;;;;;4174344;28;20064;-63
2022/12/30 14:39:39;;;;;;;5.03;1.40;;;15.50;73.20;;;;;;4175086;28;20059;-64
2022/12/30 14:42:29;;;;;;;4.18;1.65;;;15.50;73.30;;;;;;4181031;28;20166;-63
2022/12/30 14:45:22;;;;;;;1.95;0.95;;;15.50;72.90;;;;;;4185444;28;20047;-63
2022/12/30 14:48:03;;;;;;;4.72;1.50;;;15.50;73.00;;;;;;4161237;28;20052;-63
2022/12/30 14:50:45;;;;;;;2.63;1.15;;;15.50;73.10;;;;;;4192984;28;20429;-63
2022/12/30 14:53:26;;;;;;;1.92;0.85;;;15.50;73.30;;;;;;4180104;28;20383;-63
2022/12/30 14:56:17;;;;;;;3.38;1.45;;;15.40;73.50;;;;;;4187993;28;20194;-63
2022/12/30 14:58:59;;;;;;;4.28;1.63;;;15.40;73.40;;;;;;4186773;28;20543;-62
2022/12/30 15:01:44;;;;;;;4.32;0.98;;;15.40;74.00;;;;;;4185884;28;20861;-63
2022/12/30 15:04:25;;;;;;;4.75;1.30;;;15.40;73.90;;;;;;4184453;28;20059;-63
2022/12/30 15:07:06;;;;;;;3.00;1.30;;;15.40;74.00;;;;;;4176406;28;20394;-63
2022/12/30 15:09:47;;;;;;;4.45;1.38;;;15.40;73.70;;;;;;4189445;28;20122;-63
2022/12/30 15:12:29;;;;;;;3.72;1.63;;;15.40;73.90;;;;;;4189177;28;20060;-63
2022/12/30 15:15:19;;;;;;;4.60;1.25;;;15.40;74.30;;;;;;4167730;28;20059;-64
2022/12/30 15:18:01;;;;;;;3.65;1.40;;;15.50;73.70;;;;;;4178734;28;21108;-63